Details From UMMS - Minsk Velikiydvor
To UMGG - Gomel
Flight Number -
Tags decoded
Created
Modified
Stats Distance 147 nm / 272 km
Max Altitude 0 ft / 0 m
Waypoints 5
Social Downloads 2
Likes 0
Share VATSIM

Download

Looking for another format? Having issues loading an existing format? Contact us
Advertisement - Login to hide

Notes

Requested: UMMS MD13 FD13 5428E D016G D114L D122M DELON BEREG GORUL FIX01 UMGG Unmatched points: MD13 5428E D016G D114L D122M FIX01

Route

UMMS DELON BEREG GORUL UMGG

ID Type Via Altitude Latitude Longitude Leg Dist Tot Dist Heading (true) Name
O UMMS APT - 0 ft / 0 m 53.88255˚ 28.03079˚ - 0 nm - Minsk Velikiydvor
DELON FIX - 0 ft / 0 m 53.35000˚ 28.65000˚ 38 nm 38 nm 145° / 146° -
BEREG FIX - 0 ft / 0 m 52.60833˚ 30.05000˚ 67 nm 106 nm 131° / 132° -
GORUL FIX - 0 ft / 0 m 52.42500˚ 30.39000˚ 16 nm 122 nm 131° / 132° -
O UMGG APT - 0 ft / 0 m 52.52703˚ 31.01647˚ 23 nm 146 nm 75° / 75° Gomel

Altitude Profile

Advertisement - Login to hide

UMMS

Details ICAO UMMS (MSQ)
Name Minsk Velikiydvor
Region Belarus and Russia (Kaliningrad Oblast)
Timezone Europe/Minsk (UTC+3.0)
Stats Elevation 669 ft / 204 m (AMSL)
Location 53.882550° 28.030786°
Runways 1
Magnetic Variation 8.076° E

METAR

UMMS 200730Z 25005G08MPS 220V280 9999 BKN037 20/10 Q1018 R31/D NOSIG

Decode

TAF

TAF UMMS 200505Z 2006/2106 26007G12MPS 9999 BKN025 TX25/2012Z TN14/2102Z TEMPO 2006/2018 28009G14MPS BECMG 2018/2020 VRB02MPS TEMPO 2020/2106 2000 BR SCT010

Decode

Departure Runways

ID Width Length Bearing (true) Bearing (mag) Surface Threshold Offset Overrun Length
13 197 ft / 60 m 11,938 ft / 3,639 m 138.85° 130.77° Concrete 0 ft / 0 m 0 ft / 0 m
31 197 ft / 60 m 11,938 ft / 3,639 m 318.88° 310.80° Concrete 0 ft / 0 m 0 ft / 0 m

UMGG

Details ICAO UMGG (GME)
Name Gomel
Region Belarus and Russia (Kaliningrad Oblast)
Timezone Europe/Minsk (UTC+3.0)
Stats Elevation 472 ft / 144 m (AMSL)
Location 52.527026° 31.016471°
Runways 1
Magnetic Variation 8.397° E

METAR

UMGG 200730Z 30005G08MPS CAVOK 21/11 Q1018 R28/D NOSIG

Decode

TAF

TAF UMGG 200500Z 2006/2106 30006MPS 9999 BKN030 TX25/2011Z TN16/2023Z TEMPO 2006/2018 29008G13MPS TEMPO 2100/2106 28004MPS 2000 BR SCT004

Decode

Destination Runways

ID Width Length Bearing (true) Bearing (mag) Surface Threshold Offset Overrun Length
11 141 ft / 43 m 8,405 ft / 2,562 m 110.82° 102.42° Asphalt 0 ft / 0 m 164 ft / 50 m
29 141 ft / 43 m 8,405 ft / 2,562 m 290.85° 282.45° Asphalt 0 ft / 0 m 164 ft / 50 m

Approach Navaids

Runway Type Ident Frequency Range Bearing (true) Bearing (mag) Slope Elevation
11 Localiser IGM 109.30 MHz 18 nm / 33 km 110.82° 102.42° - 471 ft / 144 m (AMSL)
11 Glidescope IGM 109.30 MHz 10 nm / 19 km 109.18° 100.78° 2.70° 471 ft / 144 m (AMSL)
29 Localiser IMV 108.70 MHz 18 nm / 33 km 290.82° 282.42° - 471 ft / 144 m (AMSL)
29 Glidescope IMV 108.70 MHz 10 nm / 19 km 290.82° 282.42° 2.70° 471 ft / 144 m (AMSL)

Popular Alternatives